sensor_id;sensor_type;location;lat;lon;timestamp;P1;durP1;ratioP1;P2;durP2;ratioP2
75772;SDS011;64381;0.000;0.000;2023-07-20T00:01:01;5.60;;;3.33;;
75772;SDS011;64381;0.000;0.000;2023-07-20T00:03:26;5.73;;;3.50;;
75772;SDS011;64381;0.000;0.000;2023-07-20T00:05:52;5.40;;;3.17;;
75772;SDS011;64381;0.000;0.000;2023-07-20T00:08:17;6.00;;;3.23;;
75772;SDS011;64381;0.000;0.000;2023-07-20T00:10:43;6.70;;;3.35;;
75772;SDS011;64381;0.000;0.000;2023-07-20T00:13:08;6.30;;;3.30;;
75772;SDS011;64381;0.000;0.000;2023-07-20T00:15:34;5.88;;;3.28;;
75772;SDS011;64381;0.000;0.000;2023-07-20T00:18:00;5.93;;;3.53;;
75772;SDS011;64381;0.000;0.000;2023-07-20T00:20:25;6.27;;;3.00;;
75772;SDS011;64381;0.000;0.000;2023-07-20T00:22:50;4.93;;;3.00;;
75772;SDS011;64381;0.000;0.000;2023-07-20T00:25:15;5.60;;;3.00;;
75772;SDS011;64381;0.000;0.000;2023-07-20T00:27:41;6.40;;;3.30;;
75772;SDS011;64381;0.000;0.000;2023-07-20T00:30:06;5.87;;;3.27;;
75772;SDS011;64381;0.000;0.000;2023-07-20T00:32:32;5.33;;;3.03;;
75772;SDS011;64381;0.000;0.000;2023-07-20T00:34:57;5.77;;;3.30;;
75772;SDS011;64381;0.000;0.000;2023-07-20T00:37:22;5.00;;;3.07;;
75772;SDS011;64381;0.000;0.000;2023-07-20T00:39:47;5.00;;;2.77;;
75772;SDS011;64381;0.000;0.000;2023-07-20T00:42:13;5.20;;;3.10;;
75772;SDS011;64381;0.000;0.000;2023-07-20T00:44:38;5.37;;;3.10;;
75772;SDS011;64381;0.000;0.000;2023-07-20T00:47:03;5.50;;;3.30;;
75772;SDS011;64381;0.000;0.000;2023-07-20T00:49:30;5.82;;;3.08;;
75772;SDS011;64381;0.000;0.000;2023-07-20T00:51:55;5.63;;;3.23;;
75772;SDS011;64381;0.000;0.000;2023-07-20T00:54:20;5.80;;;3.00;;
75772;SDS011;64381;0.000;0.000;2023-07-20T00:56:46;5.95;;;3.17;;
75772;SDS011;64381;0.000;0.000;2023-07-20T00:59:11;5.40;;;2.97;;
75772;SDS011;64381;0.000;0.000;2023-07-20T01:01:37;6.25;;;3.22;;
75772;SDS011;64381;0.000;0.000;2023-07-20T01:04:03;5.37;;;2.87;;
75772;SDS011;64381;0.000;0.000;2023-07-20T01:11:59;4.90;;;3.05;;
75772;SDS011;64381;0.000;0.000;2023-07-20T01:14:32;5.57;;;3.10;;
75772;SDS011;64381;0.000;0.000;2023-07-20T01:16:57;5.13;;;3.30;;
75772;SDS011;64381;0.000;0.000;2023-07-20T01:19:23;6.03;;;3.47;;
75772;SDS011;64381;0.000;0.000;2023-07-20T01:21:53;5.30;;;3.00;;
75772;SDS011;64381;0.000;0.000;2023-07-20T01:24:38;5.30;;;3.08;;
75772;SDS011;64381;0.000;0.000;2023-07-20T01:32:25;5.50;;;3.25;;
75772;SDS011;64381;0.000;0.000;2023-07-20T01:34:52;5.03;;;2.90;;
75772;SDS011;64381;0.000;0.000;2023-07-20T01:37:19;5.03;;;2.75;;
75772;SDS011;64381;0.000;0.000;2023-07-20T01:39:46;4.38;;;2.70;;
75772;SDS011;64381;0.000;0.000;2023-07-20T01:42:12;5.30;;;3.10;;
75772;SDS011;64381;0.000;0.000;2023-07-20T01:44:37;5.30;;;2.80;;
75772;SDS011;64381;0.000;0.000;2023-07-20T01:47:03;5.22;;;2.80;;
75772;SDS011;64381;0.000;0.000;2023-07-20T01:49:28;5.00;;;3.00;;
75772;SDS011;64381;0.000;0.000;2023-07-20T01:51:54;5.10;;;2.80;;
75772;SDS011;64381;0.000;0.000;2023-07-20T01:54:19;5.37;;;2.80;;
75772;SDS011;64381;0.000;0.000;2023-07-20T01:56:44;5.47;;;3.00;;
75772;SDS011;64381;0.000;0.000;2023-07-20T01:59:09;5.40;;;3.00;;
75772;SDS011;64381;0.000;0.000;2023-07-20T02:01:34;6.07;;;2.87;;
75772;SDS011;64381;0.000;0.000;2023-07-20T02:04:00;4.90;;;2.83;;
75772;SDS011;64381;0.000;0.000;2023-07-20T02:06:25;5.27;;;2.87;;
75772;SDS011;64381;0.000;0.000;2023-07-20T02:08:50;4.70;;;2.60;;
75772;SDS011;64381;0.000;0.000;2023-07-20T02:11:15;5.40;;;2.90;;
75772;SDS011;64381;0.000;0.000;2023-07-20T02:13:40;4.57;;;2.63;;
75772;SDS011;64381;0.000;0.000;2023-07-20T02:16:06;4.80;;;2.90;;
75772;SDS011;64381;0.000;0.000;2023-07-20T02:18:31;4.83;;;2.63;;
75772;SDS011;64381;0.000;0.000;2023-07-20T02:20:56;4.67;;;2.50;;
75772;SDS011;64381;0.000;0.000;2023-07-20T02:23:21;4.93;;;2.80;;
75772;SDS011;64381;0.000;0.000;2023-07-20T02:25:47;5.00;;;2.70;;
75772;SDS011;64381;0.000;0.000;2023-07-20T02:28:13;4.53;;;2.90;;
75772;SDS011;64381;0.000;0.000;2023-07-20T02:30:38;5.07;;;2.78;;
75772;SDS011;64381;0.000;0.000;2023-07-20T02:33:04;4.73;;;2.87;;
75772;SDS011;64381;0.000;0.000;2023-07-20T02:35:29;4.80;;;2.80;;
75772;SDS011;64381;0.000;0.000;2023-07-20T02:37:54;4.90;;;2.80;;
75772;SDS011;64381;0.000;0.000;2023-07-20T02:40:19;4.30;;;2.60;;
75772;SDS011;64381;0.000;0.000;2023-07-20T02:42:45;5.53;;;2.80;;
75772;SDS011;64381;0.000;0.000;2023-07-20T02:45:10;5.67;;;2.80;;
75772;SDS011;64381;0.000;0.000;2023-07-20T02:47:35;4.30;;;2.27;;
75772;SDS011;64381;0.000;0.000;2023-07-20T02:50:00;5.07;;;2.90;;
75772;SDS011;64381;0.000;0.000;2023-07-20T02:52:25;4.93;;;2.43;;
75772;SDS011;64381;0.000;0.000;2023-07-20T02:54:51;4.80;;;2.50;;
75772;SDS011;64381;0.000;0.000;2023-07-20T02:57:16;5.10;;;2.97;;
75772;SDS011;64381;0.000;0.000;2023-07-20T02:59:41;4.83;;;2.70;;
75772;SDS011;64381;0.000;0.000;2023-07-20T03:02:06;4.47;;;2.50;;
75772;SDS011;64381;0.000;0.000;2023-07-20T03:04:32;5.60;;;2.83;;
75772;SDS011;64381;0.000;0.000;2023-07-20T03:06:57;5.77;;;3.10;;
75772;SDS011;64381;0.000;0.000;2023-07-20T03:09:22;4.93;;;2.80;;
75772;SDS011;64381;0.000;0.000;2023-07-20T03:11:48;5.23;;;2.60;;
75772;SDS011;64381;0.000;0.000;2023-07-20T03:14:14;4.20;;;2.40;;
75772;SDS011;64381;0.000;0.000;2023-07-20T03:16:39;4.40;;;2.60;;
75772;SDS011;64381;0.000;0.000;2023-07-20T03:19:05;4.57;;;2.70;;
75772;SDS011;64381;0.000;0.000;2023-07-20T03:21:30;4.37;;;2.60;;
75772;SDS011;64381;0.000;0.000;2023-07-20T03:23:55;4.70;;;2.90;;
75772;SDS011;64381;0.000;0.000;2023-07-20T03:26:20;4.03;;;2.57;;
75772;SDS011;64381;0.000;0.000;2023-07-20T03:28:46;4.80;;;2.53;;
75772;SDS011;64381;0.000;0.000;2023-07-20T03:31:11;4.40;;;2.47;;
75772;SDS011;64381;0.000;0.000;2023-07-20T03:33:36;4.47;;;2.43;;
75772;SDS011;64381;0.000;0.000;2023-07-20T03:36:02;4.63;;;2.60;;
75772;SDS011;64381;0.000;0.000;2023-07-20T03:38:27;4.60;;;2.60;;
75772;SDS011;64381;0.000;0.000;2023-07-20T03:40:57;4.33;;;2.47;;
75772;SDS011;64381;0.000;0.000;2023-07-20T03:43:24;4.05;;;2.28;;
75772;SDS011;64381;0.000;0.000;2023-07-20T03:45:50;4.65;;;2.67;;
75772;SDS011;64381;0.000;0.000;2023-07-20T03:48:15;3.93;;;2.27;;
75772;SDS011;64381;0.000;0.000;2023-07-20T03:50:41;4.20;;;2.40;;
75772;SDS011;64381;0.000;0.000;2023-07-20T03:53:06;4.47;;;2.40;;
75772;SDS011;64381;0.000;0.000;2023-07-20T03:55:32;4.43;;;2.53;;
75772;SDS011;64381;0.000;0.000;2023-07-20T03:57:57;4.37;;;2.20;;
75772;SDS011;64381;0.000;0.000;2023-07-20T04:00:22;3.60;;;2.10;;
75772;SDS011;64381;0.000;0.000;2023-07-20T04:02:47;4.47;;;2.30;;
75772;SDS011;64381;0.000;0.000;2023-07-20T04:05:13;4.53;;;2.27;;
75772;SDS011;64381;0.000;0.000;2023-07-20T04:07:38;3.67;;;2.03;;
75772;SDS011;64381;0.000;0.000;2023-07-20T04:10:03;4.87;;;2.10;;
75772;SDS011;64381;0.000;0.000;2023-07-20T04:12:29;4.35;;;2.30;;
75772;SDS011;64381;0.000;0.000;2023-07-20T04:14:54;4.60;;;2.23;;
75772;SDS011;64381;0.000;0.000;2023-07-20T04:17:19;4.10;;;2.10;;
75772;SDS011;64381;0.000;0.000;2023-07-20T04:19:45;3.88;;;2.00;;
75772;SDS011;64381;0.000;0.000;2023-07-20T04:22:10;4.00;;;2.30;;
75772;SDS011;64381;0.000;0.000;2023-07-20T04:24:35;4.10;;;2.30;;
75772;SDS011;64381;0.000;0.000;2023-07-20T04:27:01;4.07;;;2.30;;
75772;SDS011;64381;0.000;0.000;2023-07-20T04:29:26;4.27;;;2.40;;
75772;SDS011;64381;0.000;0.000;2023-07-20T04:31:51;4.27;;;2.23;;
75772;SDS011;64381;0.000;0.000;2023-07-20T04:34:16;3.93;;;2.07;;
75772;SDS011;64381;0.000;0.000;2023-07-20T04:36:41;4.53;;;2.43;;
75772;SDS011;64381;0.000;0.000;2023-07-20T04:39:07;4.67;;;2.33;;
75772;SDS011;64381;0.000;0.000;2023-07-20T04:41:32;4.23;;;2.40;;
75772;SDS011;64381;0.000;0.000;2023-07-20T04:43:57;3.63;;;1.90;;
75772;SDS011;64381;0.000;0.000;2023-07-20T04:46:22;4.00;;;2.37;;
75772;SDS011;64381;0.000;0.000;2023-07-20T04:48:48;4.03;;;2.10;;
75772;SDS011;64381;0.000;0.000;2023-07-20T04:51:13;3.93;;;2.10;;
75772;SDS011;64381;0.000;0.000;2023-07-20T04:53:38;4.17;;;2.40;;
75772;SDS011;64381;0.000;0.000;2023-07-20T04:56:03;4.57;;;2.43;;
75772;SDS011;64381;0.000;0.000;2023-07-20T04:58:29;4.07;;;2.37;;
75772;SDS011;64381;0.000;0.000;2023-07-20T05:00:54;4.07;;;2.00;;
75772;SDS011;64381;0.000;0.000;2023-07-20T05:03:19;4.78;;;2.22;;
75772;SDS011;64381;0.000;0.000;2023-07-20T05:05:46;4.70;;;2.30;;
75772;SDS011;64381;0.000;0.000;2023-07-20T05:08:11;4.38;;;2.10;;
75772;SDS011;64381;0.000;0.000;2023-07-20T05:10:37;4.88;;;2.25;;
75772;SDS011;64381;0.000;0.000;2023-07-20T05:13:02;3.67;;;2.10;;
75772;SDS011;64381;0.000;0.000;2023-07-20T05:15:27;5.17;;;2.77;;
75772;SDS011;64381;0.000;0.000;2023-07-20T05:17:52;5.30;;;2.20;;
75772;SDS011;64381;0.000;0.000;2023-07-20T05:20:18;4.90;;;2.33;;
75772;SDS011;64381;0.000;0.000;2023-07-20T05:22:43;4.20;;;2.17;;
75772;SDS011;64381;0.000;0.000;2023-07-20T05:25:09;4.17;;;2.07;;
75772;SDS011;64381;0.000;0.000;2023-07-20T05:27:39;4.60;;;2.30;;
75772;SDS011;64381;0.000;0.000;2023-07-20T05:30:05;4.22;;;2.00;;
75772;SDS011;64381;0.000;0.000;2023-07-20T05:32:31;4.07;;;2.10;;
75772;SDS011;64381;0.000;0.000;2023-07-20T05:34:56;4.67;;;2.20;;
75772;SDS011;64381;0.000;0.000;2023-07-20T05:37:21;5.45;;;2.25;;
75772;SDS011;64381;0.000;0.000;2023-07-20T05:39:47;4.33;;;2.03;;
75772;SDS011;64381;0.000;0.000;2023-07-20T05:42:12;4.07;;;2.20;;
75772;SDS011;64381;0.000;0.000;2023-07-20T05:44:37;4.30;;;2.35;;
75772;SDS011;64381;0.000;0.000;2023-07-20T05:47:02;5.63;;;2.47;;
75772;SDS011;64381;0.000;0.000;2023-07-20T05:49:28;4.27;;;2.10;;
75772;SDS011;64381;0.000;0.000;2023-07-20T05:51:54;4.43;;;2.23;;
75772;SDS011;64381;0.000;0.000;2023-07-20T05:54:20;4.40;;;2.25;;
75772;SDS011;64381;0.000;0.000;2023-07-20T05:56:45;4.27;;;2.00;;
75772;SDS011;64381;0.000;0.000;2023-07-20T05:59:10;4.07;;;2.13;;
75772;SDS011;64381;0.000;0.000;2023-07-20T06:01:36;5.03;;;2.30;;
75772;SDS011;64381;0.000;0.000;2023-07-20T06:04:01;4.50;;;2.30;;
75772;SDS011;64381;0.000;0.000;2023-07-20T06:06:26;4.73;;;2.27;;
75772;SDS011;64381;0.000;0.000;2023-07-20T06:08:51;4.57;;;1.90;;
75772;SDS011;64381;0.000;0.000;2023-07-20T06:11:16;4.43;;;2.20;;
75772;SDS011;64381;0.000;0.000;2023-07-20T06:13:42;4.30;;;2.30;;
75772;SDS011;64381;0.000;0.000;2023-07-20T06:16:07;5.00;;;2.20;;
75772;SDS011;64381;0.000;0.000;2023-07-20T06:18:32;5.30;;;2.30;;
75772;SDS011;64381;0.000;0.000;2023-07-20T06:20:57;5.47;;;2.20;;
75772;SDS011;64381;0.000;0.000;2023-07-20T06:23:22;4.33;;;2.00;;
75772;SDS011;64381;0.000;0.000;2023-07-20T06:25:48;4.80;;;2.10;;
75772;SDS011;64381;0.000;0.000;2023-07-20T06:28:13;5.07;;;2.00;;
75772;SDS011;64381;0.000;0.000;2023-07-20T06:30:38;4.78;;;2.00;;
75772;SDS011;64381;0.000;0.000;2023-07-20T06:33:04;5.78;;;2.22;;
75772;SDS011;64381;0.000;0.000;2023-07-20T06:35:29;4.67;;;2.00;;
75772;SDS011;64381;0.000;0.000;2023-07-20T06:37:54;4.70;;;2.10;;
75772;SDS011;64381;0.000;0.000;2023-07-20T06:40:20;4.90;;;2.03;;
75772;SDS011;64381;0.000;0.000;2023-07-20T06:42:46;5.88;;;2.17;;
75772;SDS011;64381;0.000;0.000;2023-07-20T06:45:11;4.87;;;2.10;;
75772;SDS011;64381;0.000;0.000;2023-07-20T06:47:39;5.07;;;2.10;;
75772;SDS011;64381;0.000;0.000;2023-07-20T06:50:06;5.35;;;2.00;;
75772;SDS011;64381;0.000;0.000;2023-07-20T06:52:32;4.43;;;2.10;;
75772;SDS011;64381;0.000;0.000;2023-07-20T06:54:57;5.20;;;1.90;;
75772;SDS011;64381;0.000;0.000;2023-07-20T06:57:22;4.33;;;2.10;;
75772;SDS011;64381;0.000;0.000;2023-07-20T06:59:48;4.27;;;1.87;;
75772;SDS011;64381;0.000;0.000;2023-07-20T07:02:13;4.23;;;1.97;;
75772;SDS011;64381;0.000;0.000;2023-07-20T07:04:38;4.00;;;1.80;;
75772;SDS011;64381;0.000;0.000;2023-07-20T07:07:03;3.63;;;1.90;;
75772;SDS011;64381;0.000;0.000;2023-07-20T07:09:29;4.20;;;1.90;;
75772;SDS011;64381;0.000;0.000;2023-07-20T07:11:54;4.20;;;2.10;;
75772;SDS011;64381;0.000;0.000;2023-07-20T07:14:19;4.07;;;1.90;;
75772;SDS011;64381;0.000;0.000;2023-07-20T07:16:45;4.00;;;1.90;;
75772;SDS011;64381;0.000;0.000;2023-07-20T07:19:10;5.83;;;2.10;;
75772;SDS011;64381;0.000;0.000;2023-07-20T07:21:35;3.87;;;2.00;;
75772;SDS011;64381;0.000;0.000;2023-07-20T07:24:01;4.87;;;2.00;;
75772;SDS011;64381;0.000;0.000;2023-07-20T07:26:26;5.33;;;2.00;;
75772;SDS011;64381;0.000;0.000;2023-07-20T07:28:51;4.60;;;2.00;;
75772;SDS011;64381;0.000;0.000;2023-07-20T07:31:16;3.53;;;1.70;;
75772;SDS011;64381;0.000;0.000;2023-07-20T07:33:42;3.97;;;1.87;;
75772;SDS011;64381;0.000;0.000;2023-07-20T07:36:07;5.07;;;1.97;;
75772;SDS011;64381;0.000;0.000;2023-07-20T07:38:32;4.30;;;1.80;;
75772;SDS011;64381;0.000;0.000;2023-07-20T07:40:58;3.70;;;1.97;;
75772;SDS011;64381;0.000;0.000;2023-07-20T07:43:24;5.45;;;2.00;;
75772;SDS011;64381;0.000;0.000;2023-07-20T07:45:49;3.90;;;2.10;;
75772;SDS011;64381;0.000;0.000;2023-07-20T07:48:14;5.07;;;1.77;;
75772;SDS011;64381;0.000;0.000;2023-07-20T07:50:40;7.47;;;2.00;;
75772;SDS011;64381;0.000;0.000;2023-07-20T07:53:05;4.27;;;1.90;;
75772;SDS011;64381;0.000;0.000;2023-07-20T07:55:30;4.18;;;1.98;;
75772;SDS011;64381;0.000;0.000;2023-07-20T07:57:56;4.00;;;1.90;;
75772;SDS011;64381;0.000;0.000;2023-07-20T08:00:21;4.47;;;2.17;;
75772;SDS011;64381;0.000;0.000;2023-07-20T08:02:46;4.00;;;1.90;;
75772;SDS011;64381;0.000;0.000;2023-07-20T08:05:12;4.30;;;1.90;;
75772;SDS011;64381;0.000;0.000;2023-07-20T08:07:37;4.05;;;1.80;;
75772;SDS011;64381;0.000;0.000;2023-07-20T08:10:03;3.92;;;2.05;;
75772;SDS011;64381;0.000;0.000;2023-07-20T08:12:29;5.03;;;2.00;;
75772;SDS011;64381;0.000;0.000;2023-07-20T08:14:54;3.55;;;1.67;;
75772;SDS011;64381;0.000;0.000;2023-07-20T08:17:19;3.72;;;1.80;;
75772;SDS011;64381;0.000;0.000;2023-07-20T08:19:45;4.60;;;1.80;;
75772;SDS011;64381;0.000;0.000;2023-07-20T08:22:11;4.40;;;1.80;;
75772;SDS011;64381;0.000;0.000;2023-07-20T08:24:39;4.23;;;1.97;;
75772;SDS011;64381;0.000;0.000;2023-07-20T08:27:05;3.50;;;1.90;;
75772;SDS011;64381;0.000;0.000;2023-07-20T08:29:30;3.88;;;1.98;;
75772;SDS011;64381;0.000;0.000;2023-07-20T08:31:55;4.57;;;1.80;;
75772;SDS011;64381;0.000;0.000;2023-07-20T08:34:21;4.50;;;1.70;;
75772;SDS011;64381;0.000;0.000;2023-07-20T08:36:46;4.23;;;2.03;;
75772;SDS011;64381;0.000;0.000;2023-07-20T08:39:11;4.37;;;2.53;;
75772;SDS011;64381;0.000;0.000;2023-07-20T08:41:36;4.13;;;1.80;;
75772;SDS011;64381;0.000;0.000;2023-07-20T08:44:02;3.70;;;1.87;;
75772;SDS011;64381;0.000;0.000;2023-07-20T08:46:27;3.70;;;1.80;;
75772;SDS011;64381;0.000;0.000;2023-07-20T08:48:54;3.70;;;1.95;;
75772;SDS011;64381;0.000;0.000;2023-07-20T08:51:21;3.20;;;1.60;;
75772;SDS011;64381;0.000;0.000;2023-07-20T08:53:47;3.70;;;1.60;;
75772;SDS011;64381;0.000;0.000;2023-07-20T08:56:12;3.88;;;1.70;;
75772;SDS011;64381;0.000;0.000;2023-07-20T08:58:39;4.35;;;1.85;;
75772;SDS011;64381;0.000;0.000;2023-07-20T09:01:08;3.88;;;1.70;;
75772;SDS011;64381;0.000;0.000;2023-07-20T09:03:35;3.97;;;2.10;;
75772;SDS011;64381;0.000;0.000;2023-07-20T09:06:00;5.17;;;1.60;;
75772;SDS011;64381;0.000;0.000;2023-07-20T09:08:25;4.03;;;1.80;;
75772;SDS011;64381;0.000;0.000;2023-07-20T09:10:50;3.40;;;1.67;;
75772;SDS011;64381;0.000;0.000;2023-07-20T09:13:16;4.00;;;1.83;;
75772;SDS011;64381;0.000;0.000;2023-07-20T09:15:47;3.73;;;1.80;;
75772;SDS011;64381;0.000;0.000;2023-07-20T09:18:24;3.40;;;1.70;;
75772;SDS011;64381;0.000;0.000;2023-07-20T09:20:50;3.58;;;1.90;;
75772;SDS011;64381;0.000;0.000;2023-07-20T09:23:15;4.37;;;2.00;;
75772;SDS011;64381;0.000;0.000;2023-07-20T09:25:41;3.50;;;1.60;;
75772;SDS011;64381;0.000;0.000;2023-07-20T09:28:06;3.50;;;1.60;;
75772;SDS011;64381;0.000;0.000;2023-07-20T09:30:31;4.10;;;1.67;;
75772;SDS011;64381;0.000;0.000;2023-07-20T09:32:57;3.30;;;1.60;;
75772;SDS011;64381;0.000;0.000;2023-07-20T09:35:22;3.65;;;1.73;;
75772;SDS011;64381;0.000;0.000;2023-07-20T09:37:53;3.47;;;1.60;;
75772;SDS011;64381;0.000;0.000;2023-07-20T09:40:22;3.58;;;1.88;;
75772;SDS011;64381;0.000;0.000;2023-07-20T09:42:47;3.10;;;1.70;;
75772;SDS011;64381;0.000;0.000;2023-07-20T09:45:13;3.20;;;1.70;;
75772;SDS011;64381;0.000;0.000;2023-07-20T09:47:39;3.30;;;1.60;;
75772;SDS011;64381;0.000;0.000;2023-07-20T09:50:05;4.90;;;1.77;;
75772;SDS011;64381;0.000;0.000;2023-07-20T09:52:31;4.10;;;1.80;;
75772;SDS011;64381;0.000;0.000;2023-07-20T09:54:57;3.27;;;1.70;;
75772;SDS011;64381;0.000;0.000;2023-07-20T09:57:22;3.50;;;1.70;;
75772;SDS011;64381;0.000;0.000;2023-07-20T09:59:48;3.23;;;1.70;;
75772;SDS011;64381;0.000;0.000;2023-07-20T10:02:23;3.33;;;1.60;;
75772;SDS011;64381;0.000;0.000;2023-07-20T10:04:54;3.50;;;1.70;;
75772;SDS011;64381;0.000;0.000;2023-07-20T10:07:21;3.58;;;1.88;;
75772;SDS011;64381;0.000;0.000;2023-07-20T10:09:47;4.07;;;1.85;;
75772;SDS011;64381;0.000;0.000;2023-07-20T10:12:13;3.67;;;1.53;;
75772;SDS011;64381;0.000;0.000;2023-07-20T10:14:41;3.97;;;1.50;;
75772;SDS011;64381;0.000;0.000;2023-07-20T10:17:10;3.17;;;1.50;;
75772;SDS011;64381;0.000;0.000;2023-07-20T10:19:47;3.38;;;1.60;;
75772;SDS011;64381;0.000;0.000;2023-07-20T10:22:16;4.00;;;1.70;;
75772;SDS011;64381;0.000;0.000;2023-07-20T10:24:45;3.42;;;1.70;;
75772;SDS011;64381;0.000;0.000;2023-07-20T10:27:11;3.20;;;1.48;;
75772;SDS011;64381;0.000;0.000;2023-07-20T10:29:37;3.50;;;1.70;;
75772;SDS011;64381;0.000;0.000;2023-07-20T10:32:03;3.22;;;1.60;;
75772;SDS011;64381;0.000;0.000;2023-07-20T10:34:29;4.07;;;1.90;;
75772;SDS011;64381;0.000;0.000;2023-07-20T10:36:54;4.07;;;1.80;;
75772;SDS011;64381;0.000;0.000;2023-07-20T10:39:26;3.20;;;1.73;;
75772;SDS011;64381;0.000;0.000;2023-07-20T10:42:02;3.42;;;1.65;;
75772;SDS011;64381;0.000;0.000;2023-07-20T10:44:28;4.03;;;1.90;;
75772;SDS011;64381;0.000;0.000;2023-07-20T10:47:01;4.13;;;1.80;;
75772;SDS011;64381;0.000;0.000;2023-07-20T10:49:28;3.80;;;1.60;;
75772;SDS011;64381;0.000;0.000;2023-07-20T10:51:56;3.42;;;1.73;;
75772;SDS011;64381;0.000;0.000;2023-07-20T10:56:48;4.13;;;1.83;;
75772;SDS011;64381;0.000;0.000;2023-07-20T10:59:17;3.50;;;1.60;;
75772;SDS011;64381;0.000;0.000;2023-07-20T11:01:44;3.60;;;1.60;;
75772;SDS011;64381;0.000;0.000;2023-07-20T11:04:09;3.40;;;1.70;;
75772;SDS011;64381;0.000;0.000;2023-07-20T11:06:34;3.07;;;1.50;;
75772;SDS011;64381;0.000;0.000;2023-07-20T11:11:35;3.83;;;1.50;;
75772;SDS011;64381;0.000;0.000;2023-07-20T11:14:02;3.40;;;1.70;;
75772;SDS011;64381;0.000;0.000;2023-07-20T11:16:35;3.40;;;1.60;;
75772;SDS011;64381;0.000;0.000;2023-07-20T11:19:04;3.45;;;1.55;;
75772;SDS011;64381;0.000;0.000;2023-07-20T11:21:40;3.40;;;1.70;;
75772;SDS011;64381;0.000;0.000;2023-07-20T11:24:06;4.43;;;1.70;;
75772;SDS011;64381;0.000;0.000;2023-07-20T11:26:48;3.73;;;1.80;;
75772;SDS011;64381;0.000;0.000;2023-07-20T11:29:18;3.83;;;1.80;;
75772;SDS011;64381;0.000;0.000;2023-07-20T11:31:45;4.00;;;1.70;;
75772;SDS011;64381;0.000;0.000;2023-07-20T11:34:12;3.85;;;1.80;;
75772;SDS011;64381;0.000;0.000;2023-07-20T11:36:42;3.33;;;1.50;;
75772;SDS011;64381;0.000;0.000;2023-07-20T11:39:10;3.47;;;1.63;;
75772;SDS011;64381;0.000;0.000;2023-07-20T11:41:36;3.20;;;1.60;;
75772;SDS011;64381;0.000;0.000;2023-07-20T11:44:02;3.80;;;2.08;;
75772;SDS011;64381;0.000;0.000;2023-07-20T11:46:30;2.93;;;1.50;;
75772;SDS011;64381;0.000;0.000;2023-07-20T11:48:58;3.20;;;1.60;;
75772;SDS011;64381;0.000;0.000;2023-07-20T11:51:24;3.73;;;1.60;;
75772;SDS011;64381;0.000;0.000;2023-07-20T11:53:51;3.70;;;1.60;;
75772;SDS011;64381;0.000;0.000;2023-07-20T11:56:16;3.57;;;1.77;;
75772;SDS011;64381;0.000;0.000;2023-07-20T11:58:45;3.50;;;1.90;;
75772;SDS011;64381;0.000;0.000;2023-07-20T12:01:11;4.97;;;1.50;;
75772;SDS011;64381;0.000;0.000;2023-07-20T12:03:37;3.10;;;1.40;;
75772;SDS011;64381;0.000;0.000;2023-07-20T12:06:06;3.00;;;1.30;;
75772;SDS011;64381;0.000;0.000;2023-07-20T12:08:32;3.20;;;1.60;;
75772;SDS011;64381;0.000;0.000;2023-07-20T12:10:57;3.43;;;1.40;;
75772;SDS011;64381;0.000;0.000;2023-07-20T12:13:23;3.67;;;1.67;;
75772;SDS011;64381;0.000;0.000;2023-07-20T12:15:48;3.33;;;1.53;;
75772;SDS011;64381;0.000;0.000;2023-07-20T12:18:13;3.47;;;1.90;;
75772;SDS011;64381;0.000;0.000;2023-07-20T12:20:38;3.30;;;1.60;;
75772;SDS011;64381;0.000;0.000;2023-07-20T12:23:04;3.57;;;1.40;;
75772;SDS011;64381;0.000;0.000;2023-07-20T12:25:34;3.50;;;1.60;;
75772;SDS011;64381;0.000;0.000;2023-07-20T12:28:04;3.38;;;1.70;;
75772;SDS011;64381;0.000;0.000;2023-07-20T12:30:30;3.20;;;1.60;;
75772;SDS011;64381;0.000;0.000;2023-07-20T12:32:55;3.10;;;1.50;;
75772;SDS011;64381;0.000;0.000;2023-07-20T12:35:21;3.20;;;1.33;;
75772;SDS011;64381;0.000;0.000;2023-07-20T12:37:46;3.22;;;1.50;;
75772;SDS011;64381;0.000;0.000;2023-07-20T12:40:11;3.47;;;1.50;;
75772;SDS011;64381;0.000;0.000;2023-07-20T12:42:37;3.50;;;1.70;;
75772;SDS011;64381;0.000;0.000;2023-07-20T12:45:02;3.37;;;1.50;;
75772;SDS011;64381;0.000;0.000;2023-07-20T12:47:27;3.30;;;1.60;;
75772;SDS011;64381;0.000;0.000;2023-07-20T12:49:52;3.50;;;1.53;;
75772;SDS011;64381;0.000;0.000;2023-07-20T12:52:18;3.30;;;1.63;;
75772;SDS011;64381;0.000;0.000;2023-07-20T12:54:43;3.57;;;1.50;;
75772;SDS011;64381;0.000;0.000;2023-07-20T12:57:08;3.07;;;1.50;;
75772;SDS011;64381;0.000;0.000;2023-07-20T12:59:33;3.53;;;1.70;;
75772;SDS011;64381;0.000;0.000;2023-07-20T13:01:59;3.33;;;1.50;;
75772;SDS011;64381;0.000;0.000;2023-07-20T13:04:24;3.20;;;1.50;;
75772;SDS011;64381;0.000;0.000;2023-07-20T13:06:49;2.90;;;1.30;;
75772;SDS011;64381;0.000;0.000;2023-07-20T13:09:14;3.43;;;1.57;;
75772;SDS011;64381;0.000;0.000;2023-07-20T13:11:39;3.10;;;1.30;;
75772;SDS011;64381;0.000;0.000;2023-07-20T13:14:05;3.53;;;1.47;;
75772;SDS011;64381;0.000;0.000;2023-07-20T13:16:30;3.73;;;1.57;;
75772;SDS011;64381;0.000;0.000;2023-07-20T13:18:55;3.63;;;1.77;;
75772;SDS011;64381;0.000;0.000;2023-07-20T13:21:20;2.97;;;1.43;;
75772;SDS011;64381;0.000;0.000;2023-07-20T13:23:46;3.20;;;1.50;;
75772;SDS011;64381;0.000;0.000;2023-07-20T13:26:11;3.80;;;1.93;;
75772;SDS011;64381;0.000;0.000;2023-07-20T13:28:36;3.30;;;1.43;;
75772;SDS011;64381;0.000;0.000;2023-07-20T13:31:01;3.43;;;1.43;;
75772;SDS011;64381;0.000;0.000;2023-07-20T13:33:26;3.20;;;1.50;;
75772;SDS011;64381;0.000;0.000;2023-07-20T13:35:52;3.13;;;1.40;;
75772;SDS011;64381;0.000;0.000;2023-07-20T13:38:17;3.53;;;1.60;;
75772;SDS011;64381;0.000;0.000;2023-07-20T13:40:42;3.37;;;1.43;;
75772;SDS011;64381;0.000;0.000;2023-07-20T13:43:08;2.85;;;1.30;;
75772;SDS011;64381;0.000;0.000;2023-07-20T13:45:34;2.80;;;1.37;;
75772;SDS011;64381;0.000;0.000;2023-07-20T13:47:59;3.73;;;1.67;;
75772;SDS011;64381;0.000;0.000;2023-07-20T13:50:24;2.90;;;1.40;;
75772;SDS011;64381;0.000;0.000;2023-07-20T13:52:49;3.67;;;1.50;;
75772;SDS011;64381;0.000;0.000;2023-07-20T13:55:14;3.87;;;1.60;;
75772;SDS011;64381;0.000;0.000;2023-07-20T13:57:40;3.00;;;1.40;;
75772;SDS011;64381;0.000;0.000;2023-07-20T14:00:05;3.70;;;1.53;;
75772;SDS011;64381;0.000;0.000;2023-07-20T14:02:31;2.97;;;1.50;;
75772;SDS011;64381;0.000;0.000;2023-07-20T14:04:56;3.17;;;1.60;;
75772;SDS011;64381;0.000;0.000;2023-07-20T14:07:22;3.40;;;1.73;;
75772;SDS011;64381;0.000;0.000;2023-07-20T14:09:47;3.03;;;1.48;;
75772;SDS011;64381;0.000;0.000;2023-07-20T14:12:12;3.10;;;1.40;;
75772;SDS011;64381;0.000;0.000;2023-07-20T14:14:38;3.20;;;1.50;;
75772;SDS011;64381;0.000;0.000;2023-07-20T14:17:03;3.23;;;1.63;;
75772;SDS011;64381;0.000;0.000;2023-07-20T14:19:28;3.10;;;1.53;;
75772;SDS011;64381;0.000;0.000;2023-07-20T14:21:54;3.30;;;1.70;;
75772;SDS011;64381;0.000;0.000;2023-07-20T14:24:19;3.30;;;1.40;;
75772;SDS011;64381;0.000;0.000;2023-07-20T14:26:44;3.13;;;1.40;;
75772;SDS011;64381;0.000;0.000;2023-07-20T14:29:09;3.07;;;1.43;;
75772;SDS011;64381;0.000;0.000;2023-07-20T14:31:34;3.20;;;1.30;;
75772;SDS011;64381;0.000;0.000;2023-07-20T14:34:00;3.67;;;1.47;;
75772;SDS011;64381;0.000;0.000;2023-07-20T14:36:25;3.10;;;1.37;;
75772;SDS011;64381;0.000;0.000;2023-07-20T14:38:50;3.43;;;1.60;;
75772;SDS011;64381;0.000;0.000;2023-07-20T14:41:15;3.10;;;1.60;;
75772;SDS011;64381;0.000;0.000;2023-07-20T14:43:40;3.00;;;1.37;;
75772;SDS011;64381;0.000;0.000;2023-07-20T14:46:06;2.90;;;1.50;;
75772;SDS011;64381;0.000;0.000;2023-07-20T14:48:31;3.10;;;1.40;;
75772;SDS011;64381;0.000;0.000;2023-07-20T14:50:56;2.90;;;1.30;;
75772;SDS011;64381;0.000;0.000;2023-07-20T14:53:21;3.20;;;1.53;;
75772;SDS011;64381;0.000;0.000;2023-07-20T14:55:46;2.97;;;1.50;;
75772;SDS011;64381;0.000;0.000;2023-07-20T14:58:12;3.00;;;1.43;;
75772;SDS011;64381;0.000;0.000;2023-07-20T15:00:37;3.10;;;1.30;;
75772;SDS011;64381;0.000;0.000;2023-07-20T15:03:02;3.23;;;1.50;;
75772;SDS011;64381;0.000;0.000;2023-07-20T15:05:28;3.17;;;1.37;;
75772;SDS011;64381;0.000;0.000;2023-07-20T15:07:53;3.00;;;1.50;;